createdAt,value
2023-02-18T00:01:12.673Z,2.10
2023-02-18T00:04:39.997Z,2.80
2023-02-18T00:08:07.369Z,2.10
2023-02-18T00:11:37.178Z,2.40
2023-02-18T00:18:30.109Z,1.90
2023-02-18T00:21:57.110Z,2.20
2023-02-18T00:25:24.252Z,2.80
2023-02-18T00:28:53.106Z,2.20
2023-02-18T00:32:20.481Z,2.30
2023-02-18T00:35:47.676Z,2.70
2023-02-18T00:39:16.071Z,2.60
2023-02-18T00:42:43.189Z,2.50
2023-02-18T00:46:10.878Z,2.40
2023-02-18T00:49:38.692Z,2.20
2023-02-18T00:53:05.890Z,2.20
2023-02-18T00:56:33.008Z,2.40
2023-02-18T01:00:00.203Z,2.60
2023-02-18T01:03:27.773Z,3.10
2023-02-18T01:06:55.001Z,2.80
2023-02-18T01:10:22.556Z,2.10
2023-02-18T01:13:52.278Z,2.40
2023-02-18T01:17:19.756Z,2.30
2023-02-18T01:20:48.076Z,2.30
2023-02-18T01:24:16.026Z,2.40
2023-02-18T01:27:43.302Z,2.30
2023-02-18T01:31:14.106Z,2.40
2023-02-18T01:34:41.412Z,3.00
2023-02-18T01:38:09.574Z,2.50
2023-02-18T01:41:36.797Z,3.10
2023-02-18T01:45:34.535Z,2.70
2023-02-18T01:49:03.648Z,2.50
2023-02-18T01:52:34.071Z,2.50
2023-02-18T01:56:06.735Z,3.00
2023-02-18T01:59:39.107Z,3.00
2023-02-18T02:03:06.579Z,2.10
2023-02-18T02:06:34.515Z,2.20
2023-02-18T02:10:03.212Z,2.00
2023-02-18T02:13:43.068Z,2.60
2023-02-18T02:21:20.795Z,2.70
2023-02-18T02:25:08.727Z,2.10
2023-02-18T02:29:09.423Z,1.70
2023-02-18T02:33:12.679Z,2.70
2023-02-18T02:36:49.106Z,3.40
2023-02-18T02:40:27.678Z,2.80
2023-02-18T02:47:44.623Z,2.70
2023-02-18T02:51:16.972Z,2.50
2023-02-18T02:54:44.227Z,2.40
2023-02-18T02:58:18.610Z,2.50
2023-02-18T03:02:00.501Z,3.00
2023-02-18T03:05:40.352Z,2.80
2023-02-18T03:09:17.983Z,2.60
2023-02-18T03:12:54.722Z,1.80
2023-02-18T03:16:34.517Z,3.00
2023-02-18T03:20:10.546Z,2.20
2023-02-18T03:23:49.298Z,1.90
2023-02-18T03:27:21.357Z,2.90
2023-02-18T03:30:52.883Z,2.80
2023-02-18T03:34:26.827Z,2.60
2023-02-18T03:38:01.069Z,2.50
2023-02-18T03:41:30.885Z,2.20
2023-02-18T03:44:59.274Z,2.20
2023-02-18T03:48:27.085Z,3.20
2023-02-18T03:51:54.366Z,2.60
2023-02-18T03:55:21.615Z,3.00
2023-02-18T03:58:51.683Z,2.20
2023-02-18T04:02:19.045Z,2.20
2023-02-18T04:05:46.501Z,2.80
2023-02-18T04:09:13.895Z,2.40
2023-02-18T04:12:41.209Z,2.90
2023-02-18T04:16:09.873Z,2.30
2023-02-18T04:19:37.419Z,2.70
2023-02-18T04:23:04.745Z,2.10
2023-02-18T04:26:32.272Z,2.40
2023-02-18T04:29:59.421Z,2.40
2023-02-18T04:33:26.506Z,2.20
2023-02-18T04:36:53.771Z,2.50
2023-02-18T04:40:21.482Z,3.10
2023-02-18T04:43:48.627Z,2.60
2023-02-18T04:47:16.478Z,2.20
2023-02-18T04:50:44.996Z,2.00
2023-02-18T04:54:12.120Z,2.60
2023-02-18T04:57:39.382Z,3.30
2023-02-18T05:01:07.220Z,2.80
2023-02-18T05:04:34.926Z,3.00
2023-02-18T05:08:02.496Z,2.20
2023-02-18T05:11:29.659Z,2.60
2023-02-18T05:14:56.843Z,3.20
2023-02-18T05:18:24.097Z,2.50
2023-02-18T05:21:51.430Z,2.30
2023-02-18T05:25:19.204Z,2.90
2023-02-18T05:28:46.508Z,3.10
2023-02-18T05:32:13.826Z,3.30
2023-02-18T05:35:41.599Z,3.10
2023-02-18T05:39:08.796Z,2.40
2023-02-18T05:42:36.116Z,2.20
2023-02-18T05:46:03.396Z,3.20
2023-02-18T05:49:31.406Z,2.70
2023-02-18T05:52:58.509Z,2.60
2023-02-18T05:56:25.679Z,3.00
2023-02-18T05:59:53.315Z,3.70
2023-02-18T06:03:20.599Z,3.00
2023-02-18T06:06:48.294Z,1.90
2023-02-18T06:10:15.724Z,3.90
2023-02-18T06:13:43.090Z,2.70
2023-02-18T06:17:10.475Z,2.60
2023-02-18T06:20:37.397Z,2.50
2023-02-18T06:24:05.144Z,2.80
2023-02-18T06:27:32.437Z,2.50
2023-02-18T06:30:59.678Z,2.50
2023-02-18T06:34:27.898Z,2.90
2023-02-18T06:37:55.044Z,3.00
2023-02-18T06:41:22.157Z,3.00
2023-02-18T06:44:49.614Z,2.90
2023-02-18T06:48:18.147Z,2.50
2023-02-18T06:51:45.606Z,2.50
2023-02-18T06:55:14.020Z,11.70
2023-02-18T06:58:41.762Z,4.20
2023-02-18T07:02:08.908Z,9.90
2023-02-18T07:05:36.487Z,7.20
2023-02-18T07:09:03.628Z,5.60
2023-02-18T07:12:31.016Z,20.80
2023-02-18T07:15:58.147Z,8.50
2023-02-18T07:19:25.766Z,12.50
2023-02-18T07:22:53.943Z,21.50
2023-02-18T07:26:21.274Z,3.90
2023-02-18T07:29:49.159Z,4.40
2023-02-18T07:33:16.457Z,3.60
2023-02-18T07:36:43.785Z,16.00
2023-02-18T07:40:13.878Z,25.40
2023-02-18T07:43:41.292Z,23.60
2023-02-18T07:47:14.954Z,8.90
2023-02-18T07:50:44.428Z,6.40
2023-02-18T07:54:11.712Z,6.60
2023-02-18T07:57:57.482Z,9.90
2023-02-18T08:01:27.625Z,36.80
2023-02-18T08:04:55.130Z,50.40
2023-02-18T08:08:24.187Z,12.70
2023-02-18T08:11:51.756Z,24.50
2023-02-18T08:15:19.444Z,5.70
2023-02-18T08:18:48.048Z,2.90
2023-02-18T08:22:15.383Z,3.00
2023-02-18T08:25:46.239Z,2.70
2023-02-18T08:29:13.453Z,3.60
2023-02-18T08:32:40.710Z,3.50
2023-02-18T08:36:11.301Z,2.70
2023-02-18T08:39:40.143Z,2.90
2023-02-18T08:43:07.647Z,3.10
2023-02-18T08:46:35.541Z,2.60
2023-02-18T08:50:04.600Z,8.40
2023-02-18T08:53:31.861Z,12.30
2023-02-18T08:56:59.119Z,27.20
2023-02-18T09:00:27.198Z,6.80
2023-02-18T09:03:54.529Z,3.50
2023-02-18T09:07:22.236Z,3.70
2023-02-18T09:10:49.463Z,3.20
2023-02-18T09:14:16.878Z,3.30
2023-02-18T09:17:44.433Z,1.90
2023-02-18T09:21:13.582Z,1.90
2023-02-18T09:24:42.207Z,3.00
2023-02-18T09:28:09.596Z,2.10
2023-02-18T09:31:38.212Z,2.40
2023-02-18T09:35:06.018Z,2.00
2023-02-18T09:38:33.242Z,2.90
2023-02-18T09:42:03.979Z,1.80
2023-02-18T09:45:31.618Z,1.90
2023-02-18T09:48:59.517Z,1.90
2023-02-18T09:52:29.878Z,1.60
2023-02-18T09:55:58.568Z,1.90
2023-02-18T09:59:28.543Z,1.80
2023-02-18T10:06:30.889Z,4.90
2023-02-18T10:10:03.645Z,6.30
2023-02-18T10:13:33.236Z,2.10
2023-02-18T10:17:01.586Z,1.80
2023-02-18T10:20:31.856Z,1.90
2023-02-18T10:24:05.134Z,2.00
2023-02-18T10:27:34.941Z,2.10
2023-02-18T10:31:09.859Z,1.80
2023-02-18T10:34:44.237Z,1.90
2023-02-18T10:38:19.840Z,1.40
2023-02-18T10:41:52.887Z,1.70
2023-02-18T10:45:30.121Z,1.30
2023-02-18T10:49:22.236Z,1.70
2023-02-18T10:52:53.691Z,1.30
2023-02-18T11:00:24.508Z,2.00
2023-02-18T11:04:04.852Z,1.60
2023-02-18T11:07:39.205Z,1.30
2023-02-18T11:11:17.343Z,1.10
2023-02-18T11:14:47.440Z,1.70
2023-02-18T11:18:31.805Z,0.80
2023-02-18T11:22:10.545Z,1.80
2023-02-18T11:25:40.366Z,1.20
2023-02-18T11:32:38.243Z,1.70
2023-02-18T11:36:15.603Z,1.30
2023-02-18T11:39:47.920Z,1.80
2023-02-18T11:43:17.567Z,2.00
2023-02-18T11:50:25.884Z,1.20
2023-02-18T11:54:05.353Z,1.70
2023-02-18T11:57:39.477Z,1.80
2023-02-18T12:01:14.349Z,1.40
2023-02-18T12:04:47.268Z,1.70
2023-02-18T12:08:20.601Z,47.60
2023-02-18T12:11:50.687Z,5.50
2023-02-18T12:15:25.541Z,2.50
2023-02-18T12:19:19.872Z,2.00
2023-02-18T12:22:58.240Z,6.50
2023-02-18T12:26:29.952Z,12.80
2023-02-18T12:30:28.254Z,2.60
2023-02-18T12:34:14.283Z,8.60
2023-02-18T12:38:02.355Z,8.30
2023-02-18T12:41:49.775Z,34.60
2023-02-18T12:45:45.115Z,39.00
2023-02-18T12:49:55.704Z,14.40
2023-02-18T12:53:54.484Z,15.30
2023-02-18T12:57:44.961Z,4.00
2023-02-18T13:01:30.429Z,2.90
2023-02-18T13:05:08.047Z,2.90
2023-02-18T13:08:48.505Z,4.30
2023-02-18T13:12:21.002Z,3.10
2023-02-18T13:15:54.150Z,4.20
2023-02-18T13:19:26.335Z,5.10
2023-02-18T13:22:53.824Z,3.50
2023-02-18T13:26:22.425Z,4.70
2023-02-18T13:29:57.386Z,11.60
2023-02-18T13:33:33.312Z,6.40
2023-02-18T13:37:09.806Z,5.30
2023-02-18T13:40:38.358Z,3.80
2023-02-18T13:44:11.192Z,3.40
2023-02-18T13:47:43.839Z,2.40
2023-02-18T13:51:11.853Z,4.60
2023-02-18T13:54:45.112Z,18.30
2023-02-18T13:58:20.702Z,80.50
2023-02-18T14:01:50.063Z,86.10
2023-02-18T14:05:25.769Z,120.00
2023-02-18T14:09:03.424Z,112.00
2023-02-18T14:12:40.322Z,68.60
2023-02-18T14:16:12.232Z,80.90
2023-02-18T14:19:39.450Z,56.90
2023-02-18T14:23:38.510Z,115.30
2023-02-18T14:27:18.024Z,118.70
2023-02-18T14:30:46.111Z,82.30
2023-02-18T14:34:57.783Z,42.60
2023-02-18T14:38:37.091Z,17.50
2023-02-18T14:42:10.373Z,4.20
2023-02-18T14:45:57.726Z,2.90
2023-02-18T14:49:40.546Z,3.00
2023-02-18T14:53:13.431Z,3.20
2023-02-18T14:56:51.975Z,11.10
2023-02-18T15:00:23.002Z,14.40
2023-02-18T15:03:52.556Z,16.90
2023-02-18T15:07:22.556Z,6.10
2023-02-18T15:10:54.049Z,7.00
2023-02-18T15:14:23.833Z,9.40
2023-02-18T15:21:25.397Z,12.90
2023-02-18T15:24:57.148Z,9.60
2023-02-18T15:28:30.461Z,11.60
2023-02-18T15:31:59.402Z,10.40
2023-02-18T15:35:31.757Z,7.60
2023-02-18T15:39:00.769Z,11.10
2023-02-18T15:42:31.741Z,11.70
2023-02-18T15:46:00.394Z,14.10
2023-02-18T15:49:27.674Z,15.90
2023-02-18T15:52:57.804Z,27.30
2023-02-18T15:56:30.739Z,24.70
2023-02-18T16:00:04.574Z,11.80
2023-02-18T16:03:33.270Z,7.40
2023-02-18T16:07:18.843Z,5.60
2023-02-18T16:10:51.312Z,5.90
2023-02-18T16:14:34.067Z,5.20
2023-02-18T16:18:01.410Z,4.30
2023-02-18T16:21:34.529Z,25.70
2023-02-18T16:25:03.247Z,9.10
2023-02-18T16:28:35.770Z,11.90
2023-02-18T16:32:03.394Z,16.10
2023-02-18T16:35:48.462Z,13.60
2023-02-18T16:39:16.706Z,12.10
2023-02-18T16:42:43.831Z,10.70
2023-02-18T16:46:16.352Z,23.70
2023-02-18T16:49:46.122Z,15.50
2023-02-18T16:56:41.274Z,12.60
2023-02-18T17:00:10.708Z,26.10
2023-02-18T17:03:37.941Z,18.50
2023-02-18T17:07:07.534Z,16.30
2023-02-18T17:10:36.098Z,21.60
2023-02-18T17:14:05.219Z,21.80
2023-02-18T17:17:32.769Z,16.60
2023-02-18T17:20:59.898Z,19.80
2023-02-18T17:24:27.063Z,34.80
2023-02-18T17:27:54.406Z,25.30
2023-02-18T17:31:26.062Z,17.80
2023-02-18T17:34:53.294Z,17.60
2023-02-18T17:38:21.359Z,13.60
2023-02-18T17:41:48.442Z,12.20
2023-02-18T17:45:24.477Z,8.60
2023-02-18T17:48:51.738Z,8.20
2023-02-18T17:52:33.228Z,7.10
2023-02-18T17:56:00.496Z,8.90
2023-02-18T17:59:29.137Z,8.50
2023-02-18T18:02:56.785Z,9.60
2023-02-18T18:06:24.235Z,7.70
2023-02-18T18:09:51.470Z,10.00
2023-02-18T18:13:23.733Z,16.70
2023-02-18T18:16:51.043Z,20.00
2023-02-18T18:20:18.719Z,17.00
2023-02-18T18:23:45.824Z,15.70
2023-02-18T18:27:13.752Z,15.80
2023-02-18T18:30:43.258Z,13.10
2023-02-18T18:34:12.605Z,13.80
2023-02-18T18:37:39.805Z,14.90
2023-02-18T18:41:07.641Z,12.10
2023-02-18T18:44:35.045Z,14.20
2023-02-18T18:48:02.311Z,14.70
2023-02-18T18:51:32.815Z,13.00
2023-02-18T18:54:59.912Z,12.30
2023-02-18T18:58:27.590Z,14.50
2023-02-18T19:01:55.813Z,13.20
2023-02-18T19:05:30.227Z,10.60
2023-02-18T19:08:57.338Z,14.70
2023-02-18T19:12:24.446Z,23.50
2023-02-18T19:15:54.827Z,18.80
2023-02-18T19:19:24.765Z,18.10
2023-02-18T19:22:52.388Z,20.80
2023-02-18T19:26:20.798Z,19.20
2023-02-18T19:29:50.403Z,11.50
2023-02-18T19:33:18.176Z,11.50
2023-02-18T19:36:46.811Z,9.20
2023-02-18T19:40:18.030Z,10.30
2023-02-18T19:43:46.707Z,10.70
2023-02-18T19:47:14.114Z,12.50
2023-02-18T19:50:43.138Z,10.10
2023-02-18T19:54:10.200Z,12.40
2023-02-18T19:57:38.069Z,12.60
2023-02-18T20:01:11.491Z,14.50
2023-02-18T20:04:38.887Z,10.00
2023-02-18T20:08:06.478Z,9.60
2023-02-18T20:11:34.684Z,11.30
2023-02-18T20:15:03.156Z,14.50
2023-02-18T20:18:30.638Z,17.30
2023-02-18T20:21:58.604Z,30.00
2023-02-18T20:25:26.843Z,15.80
2023-02-18T20:28:54.737Z,8.40
2023-02-18T20:32:22.358Z,29.00
2023-02-18T20:35:58.789Z,56.30
2023-02-18T20:39:26.169Z,27.20
2023-02-18T20:42:53.381Z,27.70
2023-02-18T20:46:22.171Z,28.10
2023-02-18T20:49:49.298Z,26.90
2023-02-18T20:53:16.538Z,26.40
2023-02-18T20:56:44.495Z,29.10
2023-02-18T21:00:14.330Z,30.50
2023-02-18T21:03:42.319Z,29.30
2023-02-18T21:07:09.448Z,28.10
2023-02-18T21:10:40.637Z,22.60
2023-02-18T21:14:07.956Z,22.70
2023-02-18T21:17:35.182Z,17.20
2023-02-18T21:21:04.552Z,15.90
2023-02-18T21:24:34.502Z,12.90
2023-02-18T21:28:01.766Z,11.40
2023-02-18T21:31:31.250Z,11.00
2023-02-18T21:38:24.340Z,10.00
2023-02-18T21:41:51.473Z,9.30
2023-02-18T21:45:19.744Z,16.20
2023-02-18T21:49:05.554Z,15.10
2023-02-18T21:52:32.838Z,14.40
2023-02-18T21:56:09.345Z,13.10
2023-02-18T21:59:37.495Z,13.10
2023-02-18T22:03:04.869Z,12.70
2023-02-18T22:06:32.149Z,12.10
2023-02-18T22:09:59.533Z,10.10
2023-02-18T22:13:26.786Z,11.10
2023-02-18T22:16:53.957Z,9.60
2023-02-18T22:20:21.200Z,9.70
2023-02-18T22:23:48.415Z,7.90
2023-02-18T22:27:24.376Z,8.50
2023-02-18T22:30:51.474Z,8.30
2023-02-18T22:34:19.308Z,8.10
2023-02-18T22:37:46.478Z,9.30
2023-02-18T22:41:15.697Z,7.90
2023-02-18T22:44:43.069Z,8.20
2023-02-18T22:48:10.428Z,7.50
2023-02-18T22:51:39.554Z,9.60
2023-02-18T22:55:07.746Z,8.60
2023-02-18T22:58:35.411Z,10.40
2023-02-18T23:02:02.592Z,9.40
2023-02-18T23:05:29.759Z,10.40
2023-02-18T23:08:59.003Z,10.60
2023-02-18T23:12:26.483Z,10.30
2023-02-18T23:16:03.992Z,11.20
2023-02-18T23:19:36.158Z,11.20
2023-02-18T23:23:03.194Z,11.80
2023-02-18T23:26:30.456Z,12.00
2023-02-18T23:29:57.881Z,11.40
2023-02-18T23:33:25.181Z,11.90
2023-02-18T23:36:52.412Z,11.10
2023-02-18T23:40:20.206Z,12.30
2023-02-18T23:43:47.826Z,13.50
2023-02-18T23:47:15.013Z,13.20
2023-02-18T23:50:42.345Z,13.80
2023-02-18T23:54:10.014Z,14.40
2023-02-18T23:57:37.430Z,12.10
